Time;durP1;ratioP1;P1;durP2;ratioP2;P2;SDS_P1;SDS_P2;PMS_P1;PMS_P2;Temp;Humidity;BMP_temperature;BMP_pressure;BME280_temperature;BME280_humidity;BME280_pressure;Samples;Min_cycle;Max_cycle;Signal;HPM_P1;HPM_P2
2021/09/18 00:02:12;;;;;;;0.80;0.30;;;;;;;9.98;52.29;101683.06;5004094;28;20058;-67
2021/09/18 00:04:37;;;;;;;0.70;0.28;;;;;;;10.08;52.11;101687.19;5006151;28;20044;-67
2021/09/18 00:07:03;;;;;;;3.42;0.50;;;;;;;10.16;51.73;101682.59;5004889;28;20552;-66
2021/09/18 00:09:28;;;;;;;1.90;0.40;;;;;;;10.07;51.68;101682.84;5003599;28;20479;-67
2021/09/18 00:11:54;;;;;;;0.90;0.32;;;;;;;10.10;52.12;101687.13;5005495;28;20034;-68
2021/09/18 00:14:20;;;;;;;2.03;0.25;;;;;;;10.19;51.70;101690.38;5005428;28;20052;-72
2021/09/18 00:16:47;;;;;;;0.70;0.20;;;;;;;10.21;51.48;101680.75;5006699;28;20044;-70
2021/09/18 00:19:12;;;;;;;1.40;0.40;;;;;;;10.12;51.71;101687.94;5004780;28;20037;-71
2021/09/18 00:21:38;;;;;;;3.53;0.43;;;;;;;10.11;51.56;101683.63;5008660;28;20029;-71
2021/09/18 00:24:04;;;;;;;0.52;0.20;;;;;;;10.02;51.95;101684.72;5006351;28;20099;-72
2021/09/18 00:26:32;;;;;;;0.95;0.17;;;;;;;9.84;51.99;101685.16;5005290;28;20029;-70
2021/09/18 00:28:59;;;;;;;1.90;0.30;;;;;;;9.66;52.16;101686.44;5003165;28;20026;-71
2021/09/18 00:31:26;;;;;;;2.17;0.30;;;;;;;9.70;52.38;101688.03;5003551;28;20399;-71
2021/09/18 00:33:52;;;;;;;1.17;0.30;;;;;;;9.68;52.45;101685.50;5003852;28;20038;-71
2021/09/18 00:36:17;;;;;;;0.50;0.17;;;;;;;9.63;52.57;101687.31;5005495;28;20044;-71
2021/09/18 00:38:43;;;;;;;0.85;0.20;;;;;;;9.72;52.16;101684.53;5004935;28;20087;-72
2021/09/18 00:41:09;;;;;;;0.68;0.20;;;;;;;9.72;52.18;101681.91;5005120;28;20041;-70
2021/09/18 00:43:34;;;;;;;1.85;0.15;;;;;;;9.77;51.98;101685.28;5005870;28;20037;-67
2021/09/18 00:46:00;;;;;;;2.53;0.20;;;;;;;9.79;52.06;101678.28;5003674;28;20026;-67
2021/09/18 00:48:25;;;;;;;2.17;0.40;;;;;;;9.81;51.84;101680.84;5004012;28;20400;-66
2021/09/18 00:50:51;;;;;;;1.95;0.20;;;;;;;9.80;51.81;101680.00;5001997;28;20038;-66
2021/09/18 00:53:16;;;;;;;2.42;0.30;;;;;;;9.75;51.65;101674.00;5004804;28;20325;-67
2021/09/18 00:55:43;;;;;;;2.33;0.20;;;;;;;9.69;52.00;101681.97;5004311;28;20647;-67
2021/09/18 00:58:09;;;;;;;0.70;0.30;;;;;;;9.63;51.69;101686.47;5003279;28;20422;-67
2021/09/18 01:00:34;;;;;;;4.38;0.22;;;;;;;9.50;52.15;101678.94;5002793;28;20034;-67
2021/09/18 01:03:00;;;;;;;0.85;0.20;;;;;;;9.49;52.09;101678.97;5004055;28;20386;-70
2021/09/18 01:05:25;;;;;;;0.88;0.30;;;;;;;9.36;52.30;101676.63;5002730;28;20081;-69
2021/09/18 01:07:55;;;;;;;1.02;0.30;;;;;;;9.40;52.37;101680.88;5002811;28;20034;-70
2021/09/18 01:10:21;;;;;;;2.35;0.30;;;;;;;9.47;51.83;101684.22;5004798;28;20061;-71
2021/09/18 01:13:04;;;;;;;2.30;0.30;;;;;;;9.49;52.00;101684.19;5003594;28;20041;-69
2021/09/18 01:15:32;;;;;;;3.05;0.25;;;;;;;9.51;51.82;101682.41;5003284;28;20034;-70
2021/09/18 01:17:58;;;;;;;0.80;0.40;;;;;;;9.60;52.05;101675.22;4993661;28;20038;-69
2021/09/18 01:20:25;;;;;;;2.97;0.28;;;;;;;9.72;51.94;101687.13;4993647;28;20119;-69
2021/09/18 01:22:51;;;;;;;1.58;0.32;;;;;;;9.78;51.81;101681.75;5004531;28;20112;-68
2021/09/18 01:25:17;;;;;;;2.50;0.47;;;;;;;9.70;51.89;101685.44;5003793;28;20042;-68
2021/09/18 01:27:44;;;;;;;1.60;0.15;;;;;;;9.68;52.11;101676.78;5002944;28;20049;-68
2021/09/18 01:30:16;;;;;;;0.60;0.55;;;;;;;9.71;51.86;101680.19;5003743;28;21097;-68
2021/09/18 01:32:41;;;;;;;0.90;0.32;;;;;;;9.71;51.98;101679.34;5003069;28;20038;-68
2021/09/18 01:35:07;;;;;;;0.75;0.20;;;;;;;9.65;52.16;101682.94;5002203;28;20088;-69
2021/09/18 01:37:35;;;;;;;1.83;0.30;;;;;;;9.49;51.64;101689.41;5018102;28;20034;-68
2021/09/18 01:40:00;;;;;;;1.38;0.45;;;;;;;9.47;52.20;101684.22;5004154;28;20034;-68
2021/09/18 01:42:26;;;;;;;0.45;0.20;;;;;;;9.52;52.15;101684.09;5002578;28;20025;-68
2021/09/18 01:44:51;;;;;;;0.70;0.20;;;;;;;9.54;52.44;101682.31;5004222;28;20060;-68
2021/09/18 01:47:16;;;;;;;0.60;0.40;;;;;;;9.55;52.07;101684.06;5003102;28;20087;-68
2021/09/18 01:49:42;;;;;;;2.42;0.68;;;;;;;9.68;52.37;101685.50;5004810;28;20390;-68
2021/09/18 01:52:19;;;;;;;0.45;0.20;;;;;;;9.77;52.38;101684.41;5001141;28;20045;-68
2021/09/18 01:54:44;;;;;;;1.70;0.20;;;;;;;9.90;51.99;101679.78;5019259;28;20118;-65
2021/09/18 01:57:09;;;;;;;0.60;0.25;;;;;;;9.96;51.97;101682.25;5002678;28;20705;-65
2021/09/18 01:59:35;;;;;;;1.98;0.40;;;;;;;9.98;51.74;101688.28;5001145;28;20049;-65
2021/09/18 02:02:01;;;;;;;1.33;0.30;;;;;;;10.05;51.71;101679.41;5003249;28;20033;-66
2021/09/18 02:04:26;;;;;;;3.08;0.20;;;;;;;10.17;51.58;101688.69;5002457;28;20223;-65
2021/09/18 02:06:52;;;;;;;2.53;0.20;;;;;;;10.09;51.72;101680.19;5003606;28;20068;-66
2021/09/18 02:09:17;;;;;;;0.57;0.25;;;;;;;10.08;51.80;101678.47;5000651;28;20045;-65
2021/09/18 02:11:43;;;;;;;1.45;0.30;;;;;;;9.99;52.12;101672.59;5002904;28;20038;-65
2021/09/18 02:14:08;;;;;;;1.40;0.30;;;;;;;10.05;52.26;101673.31;5004402;28;20034;-65
2021/09/18 02:16:33;;;;;;;1.42;0.30;;;;;;;10.20;52.71;101673.78;5006993;28;20514;-65
2021/09/18 02:18:59;;;;;;;0.20;0.10;;;;;;;10.30;52.45;101676.16;5006345;28;20093;-65
2021/09/18 02:21:25;;;;;;;1.05;0.20;;;;;;;10.39;51.89;101674.19;5006075;28;20477;-65
2021/09/18 02:23:50;;;;;;;1.80;0.38;;;;;;;10.41;52.07;101676.72;5005330;28;20034;-65
2021/09/18 02:26:16;;;;;;;0.55;0.22;;;;;;;10.57;51.90;101682.41;5007095;28;20348;-65
2021/09/18 02:28:41;;;;;;;0.30;0.25;;;;;;;10.47;51.77;101673.97;5006792;28;20557;-65
2021/09/18 02:31:07;;;;;;;1.00;0.20;;;;;;;10.62;51.89;101670.94;5007076;28;20033;-65
2021/09/18 02:33:35;;;;;;;1.83;0.38;;;;;;;10.71;51.32;101663.75;5006305;28;20116;-65
2021/09/18 02:36:00;;;;;;;0.85;0.20;;;;;;;10.79;51.49;101660.03;5007179;28;20054;-65
2021/09/18 02:38:26;;;;;;;1.50;0.32;;;;;;;10.84;51.42;101660.78;5005625;28;20529;-65
2021/09/18 02:40:54;;;;;;;0.65;0.25;;;;;;;10.87;51.36;101659.81;5007599;28;20433;-65
2021/09/18 02:43:20;;;;;;;4.47;0.30;;;;;;;10.71;51.25;101664.59;5004797;28;20044;-65
2021/09/18 02:45:46;;;;;;;1.20;0.30;;;;;;;10.84;51.54;101665.16;5007214;28;20042;-65
2021/09/18 02:48:11;;;;;;;2.92;0.30;;;;;;;10.88;51.37;101658.91;5004877;28;20055;-65
2021/09/18 02:50:37;;;;;;;1.23;0.22;;;;;;;11.00;51.33;101663.78;5008262;28;20445;-66
2021/09/18 02:53:03;;;;;;;0.95;0.43;;;;;;;11.08;51.43;101660.09;5005201;28;20489;-67
2021/09/18 02:55:29;;;;;;;0.90;0.47;;;;;;;11.04;51.25;101659.34;5007188;28;21956;-68
2021/09/18 02:57:55;;;;;;;1.25;0.45;;;;;;;11.05;51.50;101661.88;5007538;28;20048;-68
2021/09/18 03:00:20;;;;;;;1.85;0.20;;;;;;;11.08;51.28;101658.31;5004901;28;20038;-69
2021/09/18 03:02:46;;;;;;;1.90;0.30;;;;;;;11.16;51.18;101656.34;5006915;28;20112;-67
2021/09/18 03:05:13;;;;;;;1.85;0.30;;;;;;;11.20;51.38;101652.75;5004381;28;20052;-68
2021/09/18 03:07:39;;;;;;;0.70;0.40;;;;;;;11.22;51.11;101656.16;4989560;28;20372;-68
2021/09/18 03:10:07;;;;;;;0.93;0.30;;;;;;;11.25;51.03;101658.69;5007446;28;20044;-67
2021/09/18 03:12:33;;;;;;;1.08;0.30;;;;;;;11.21;50.38;101664.91;5021582;28;20037;-68
2021/09/18 03:14:59;;;;;;;1.90;0.30;;;;;;;11.11;51.31;101667.88;5006166;28;20036;-68
2021/09/18 03:17:24;;;;;;;1.30;0.30;;;;;;;11.05;51.51;101667.13;5004843;28;20045;-68
2021/09/18 03:19:51;;;;;;;1.20;0.20;;;;;;;11.16;51.02;101665.97;5007013;28;20044;-69
2021/09/18 03:22:18;;;;;;;0.28;0.10;;;;;;;11.22;50.96;101663.16;4997505;28;20037;-69
2021/09/18 03:24:43;;;;;;;1.80;0.20;;;;;;;11.13;51.25;101672.16;5005636;28;20058;-69
2021/09/18 03:27:09;;;;;;;1.08;0.20;;;;;;;11.14;51.73;101667.75;5006764;28;20507;-69
2021/09/18 03:29:37;;;;;;;1.23;0.22;;;;;;;11.20;51.59;101670.22;5005517;28;20124;-69
2021/09/18 03:32:04;;;;;;;1.33;0.20;;;;;;;11.40;50.99;101659.97;4991201;28;20026;-66
2021/09/18 03:34:29;;;;;;;1.23;0.20;;;;;;;11.50;50.90;101665.78;5005380;28;20092;-69
2021/09/18 03:36:55;;;;;;;1.48;0.32;;;;;;;11.29;51.42;101667.31;4992482;28;20529;-68
2021/09/18 03:39:20;;;;;;;0.40;0.10;;;;;;;11.48;51.37;101661.50;5005139;28;20064;-69
2021/09/18 03:41:46;;;;;;;1.33;0.20;;;;;;;11.58;51.15;101662.94;5006449;28;20403;-69
2021/09/18 03:44:11;;;;;;;0.50;0.28;;;;;;;11.67;51.16;101658.25;5004855;28;20543;-69
2021/09/18 03:46:37;;;;;;;1.17;0.20;;;;;;;11.70;51.06;101667.75;5006392;28;20033;-67
2021/09/18 03:49:02;;;;;;;3.30;0.65;;;;;;;11.72;50.76;101660.72;5005557;28;20029;-67
2021/09/18 03:51:28;;;;;;;1.27;0.10;;;;;;;11.68;50.86;101664.34;4996815;28;20584;-67
2021/09/18 03:53:53;;;;;;;1.73;0.20;;;;;;;11.48;50.85;101656.25;5005728;28;20065;-67
2021/09/18 03:56:19;;;;;;;3.90;0.20;;;;;;;11.51;51.45;101658.78;5006088;28;20030;-67
2021/09/18 03:58:44;;;;;;;0.65;0.13;;;;;;;11.61;51.47;101660.22;5005919;28;20503;-66
2021/09/18 04:01:10;;;;;;;1.05;0.20;;;;;;;11.69;51.40;101666.06;5004341;28;20038;-67
2021/09/18 04:03:35;;;;;;;0.73;0.30;;;;;;;11.78;51.40;101670.19;5005416;28;20044;-67
2021/09/18 04:06:01;;;;;;;0.43;0.15;;;;;;;11.92;51.06;101672.34;5004987;28;20288;-67
2021/09/18 04:08:26;;;;;;;0.50;0.20;;;;;;;11.88;50.73;101672.44;5006943;28;20040;-68
2021/09/18 04:10:52;;;;;;;0.70;0.30;;;;;;;11.86;50.87;101666.38;5006031;28;20049;-67
2021/09/18 04:13:17;;;;;;;0.40;0.20;;;;;;;11.82;50.79;101669.16;5006875;28;20417;-67
2021/09/18 04:15:42;;;;;;;0.50;0.10;;;;;;;11.87;50.89;101670.72;5006809;28;20070;-67
2021/09/18 04:18:08;;;;;;;0.50;0.20;;;;;;;11.92;50.92;101669.72;5005406;28;20080;-67
2021/09/18 04:20:35;;;;;;;0.65;0.10;;;;;;;11.84;51.27;101665.59;5006607;28;20617;-67
2021/09/18 04:23:00;;;;;;;3.42;0.30;;;;;;;11.77;51.07;101669.31;5021453;28;20034;-68
2021/09/18 04:25:26;;;;;;;0.43;0.15;;;;;;;11.74;51.05;101664.16;5020687;28;20092;-67
2021/09/18 04:27:51;;;;;;;0.70;0.20;;;;;;;11.68;51.09;101669.56;5003701;28;20038;-68
2021/09/18 04:30:17;;;;;;;1.90;0.73;;;;;;;11.67;51.91;101665.25;4991193;28;20030;-68
2021/09/18 04:32:43;;;;;;;1.23;0.17;;;;;;;11.72;51.61;101665.09;5005035;28;20038;-69
2021/09/18 04:35:09;;;;;;;1.48;0.28;;;;;;;11.87;51.41;101670.72;5005461;28;20036;-69
2021/09/18 04:37:34;;;;;;;0.63;0.28;;;;;;;11.80;51.50;101673.63;5004506;28;20563;-70
2021/09/18 04:40:00;;;;;;;2.35;0.30;;;;;;;11.82;51.76;101677.88;5005102;28;20052;-70
2021/09/18 04:42:25;;;;;;;1.55;0.25;;;;;;;11.85;51.90;101674.31;5004452;28;20034;-70
2021/09/18 04:44:51;;;;;;;3.22;0.28;;;;;;;11.85;51.64;101677.78;5003825;28;20355;-70
2021/09/18 04:47:16;;;;;;;4.55;0.30;;;;;;;11.93;51.59;101679.28;5002736;28;20029;-68
2021/09/18 04:49:42;;;;;;;0.70;0.22;;;;;;;11.92;51.61;101678.44;5004387;28;20141;-68
2021/09/18 04:52:08;;;;;;;0.80;0.17;;;;;;;11.88;51.29;101677.66;5003387;28;20411;-67
2021/09/18 04:54:33;;;;;;;0.75;0.43;;;;;;;11.84;51.44;101677.81;5007041;28;20659;-68
2021/09/18 04:56:59;;;;;;;0.45;0.20;;;;;;;11.69;51.23;101676.53;5000979;28;20453;-68
2021/09/18 04:59:24;;;;;;;0.75;0.30;;;;;;;11.55;51.42;101676.94;5002295;28;20535;-67
2021/09/18 05:01:50;;;;;;;1.58;0.20;;;;;;;11.51;51.87;101679.72;5004828;28;20758;-69
2021/09/18 05:04:15;;;;;;;0.40;0.20;;;;;;;11.46;51.86;101685.09;5003331;28;20042;-67
2021/09/18 05:06:41;;;;;;;1.73;0.32;;;;;;;11.44;51.74;101681.66;5003535;28;20494;-69
2021/09/18 05:09:07;;;;;;;1.30;0.30;;;;;;;11.44;52.20;101677.31;5003879;28;20021;-69
2021/09/18 05:11:32;;;;;;;0.60;0.20;;;;;;;11.45;52.35;101678.16;5004489;28;20513;-69
2021/09/18 05:13:58;;;;;;;1.02;0.30;;;;;;;11.42;52.11;101678.25;5004503;28;20600;-68
2021/09/18 05:16:24;;;;;;;2.03;0.45;;;;;;;11.45;52.01;101684.25;4991676;28;20038;-68
2021/09/18 05:18:50;;;;;;;1.85;0.20;;;;;;;11.40;52.35;101691.41;4980932;28;20482;-68
2021/09/18 05:21:15;;;;;;;0.57;0.40;;;;;;;11.42;52.14;101692.19;5002855;28;20045;-67
2021/09/18 05:23:41;;;;;;;0.80;0.40;;;;;;;11.35;52.39;101695.91;5004079;28;20104;-67
2021/09/18 05:26:07;;;;;;;0.80;0.30;;;;;;;11.28;52.33;101702.22;5002775;28;20107;-67
2021/09/18 05:28:33;;;;;;;1.17;0.32;;;;;;;11.32;52.70;101698.59;5002513;28;20034;-67
2021/09/18 05:30:58;;;;;;;4.32;0.40;;;;;;;11.40;52.32;101696.63;5003394;28;20387;-67
2021/09/18 05:33:24;;;;;;;1.92;0.40;;;;;;;11.40;51.88;101701.88;5003364;28;20077;-67
2021/09/18 05:35:49;;;;;;;1.08;0.80;;;;;;;11.37;52.25;101711.56;5003748;28;20475;-67
2021/09/18 05:38:14;;;;;;;3.13;0.30;;;;;;;11.36;52.12;101707.25;5003323;28;20061;-67
2021/09/18 05:40:42;;;;;;;2.30;0.60;;;;;;;11.41;51.97;101713.19;4997498;28;20517;-67
2021/09/18 05:43:08;;;;;;;1.30;0.30;;;;;;;11.66;52.28;101713.28;5002502;28;20044;-67
2021/09/18 05:45:33;;;;;;;2.75;0.40;;;;;;;11.91;51.42;101712.53;5003493;28;20030;-67
2021/09/18 05:48:02;;;;;;;1.50;0.60;;;;;;;12.05;50.82;101705.09;5002859;28;20034;-67
2021/09/18 05:50:28;;;;;;;1.30;0.50;;;;;;;11.98;50.82;101703.59;5007255;28;20485;-67
2021/09/18 05:52:53;;;;;;;1.88;0.50;;;;;;;12.01;50.94;101703.47;5002943;28;20113;-67
2021/09/18 05:55:19;;;;;;;1.67;0.43;;;;;;;12.00;50.63;101702.63;5003889;28;20034;-67
2021/09/18 05:57:44;;;;;;;2.65;0.50;;;;;;;12.02;50.46;101706.06;5003973;28;20427;-69
2021/09/18 06:00:10;;;;;;;1.50;0.40;;;;;;;12.02;50.22;101711.31;5002917;28;20493;-68
2021/09/18 06:02:35;;;;;;;0.88;0.38;;;;;;;12.03;50.21;101712.16;5004000;28;20319;-69
2021/09/18 06:05:01;;;;;;;2.78;0.50;;;;;;;11.88;50.49;101710.88;5004310;28;20042;-68
2021/09/18 06:07:26;;;;;;;1.98;0.73;;;;;;;11.85;50.54;101711.84;5003108;28;20116;-69
2021/09/18 06:09:52;;;;;;;2.60;0.70;;;;;;;11.74;50.29;101716.53;5003767;28;20049;-68
2021/09/18 06:12:17;;;;;;;1.48;0.47;;;;;;;11.79;50.68;101719.03;5002724;28;20037;-68
2021/09/18 06:14:42;;;;;;;2.20;0.60;;;;;;;11.79;50.12;101719.88;5003537;28;20120;-68
2021/09/18 06:17:08;;;;;;;1.40;0.68;;;;;;;11.79;50.62;101727.72;5004275;28;20439;-68
2021/09/18 06:19:33;;;;;;;4.90;0.80;;;;;;;11.82;50.21;101729.41;5003314;28;20406;-68
2021/09/18 06:21:59;;;;;;;2.47;0.85;;;;;;;11.86;50.05;101737.09;5004842;28;20092;-68
2021/09/18 06:24:24;;;;;;;2.03;0.60;;;;;;;11.91;49.57;101738.72;5001648;28;20026;-68
2021/09/18 06:26:50;;;;;;;1.00;0.70;;;;;;;12.00;50.14;101739.31;5004547;28;20026;-68
2021/09/18 06:29:15;;;;;;;1.38;0.50;;;;;;;12.26;50.10;101742.81;5001137;28;20059;-69
2021/09/18 06:31:43;;;;;;;2.58;0.65;;;;;;;12.38;49.18;101737.19;5002850;28;20387;-68
2021/09/18 06:34:08;;;;;;;1.90;0.35;;;;;;;12.62;49.58;101738.09;5002661;28;20486;-68
2021/09/18 06:36:34;;;;;;;3.00;0.60;;;;;;;12.87;49.36;101735.50;4987001;28;20088;-68
2021/09/18 06:38:59;;;;;;;3.95;0.95;;;;;;;13.08;48.68;101725.97;5003535;28;20038;-68
2021/09/18 06:41:25;;;;;;;3.90;0.95;;;;;;;13.15;48.36;101725.75;5001926;28;20041;-69
2021/09/18 06:43:50;;;;;;;1.58;0.90;;;;;;;12.97;47.92;101733.38;5000027;28;20040;-68
2021/09/18 06:46:16;;;;;;;2.65;1.73;;;;;;;12.75;48.56;101737.69;5017425;28;20042;-68
2021/09/18 06:48:42;;;;;;;1.60;0.90;;;;;;;12.62;49.13;101748.56;5003349;28;20121;-70
2021/09/18 06:51:09;;;;;;;1.70;0.90;;;;;;;12.53;49.15;101746.28;5001958;28;20048;-69
2021/09/18 06:53:34;;;;;;;1.42;0.82;;;;;;;12.53;49.62;101748.91;5001980;28;20033;-69
2021/09/18 06:55:59;;;;;;;3.08;0.75;;;;;;;12.49;49.44;101758.66;5003155;28;20037;-68
2021/09/18 06:58:25;;;;;;;1.50;0.70;;;;;;;12.52;50.07;101756.84;5004489;28;20042;-69
2021/09/18 07:00:50;;;;;;;4.88;0.82;;;;;;;12.56;50.21;101759.31;5005330;28;20037;-67
2021/09/18 07:03:16;;;;;;;3.53;0.75;;;;;;;12.64;49.49;101762.50;5006844;28;20434;-68
2021/09/18 07:05:42;;;;;;;8.73;1.00;;;;;;;12.65;49.54;101755.50;5007365;28;20502;-68
2021/09/18 07:08:07;;;;;;;1.95;0.57;;;;;;;12.81;50.04;101758.47;5006245;28;20150;-68
2021/09/18 07:10:35;;;;;;;2.90;0.63;;;;;;;13.04;49.64;101755.88;5001261;28;20037;-68
2021/09/18 07:13:01;;;;;;;3.80;0.75;;;;;;;13.18;49.27;101759.75;5007441;28;20041;-68
2021/09/18 07:15:26;;;;;;;3.20;0.80;;;;;;;13.35;48.77;101759.13;5005938;28;20112;-69
2021/09/18 07:17:52;;;;;;;3.35;0.77;;;;;;;13.53;49.04;101756.66;5004159;28;20072;-68
2021/09/18 07:20:18;;;;;;;2.25;0.35;;;;;;;13.68;48.75;101751.78;5006602;28;20068;-68
2021/09/18 07:22:44;;;;;;;2.13;0.60;;;;;;;13.91;48.00;101759.56;5005066;28;20022;-68
2021/09/18 07:25:10;;;;;;;2.17;0.43;;;;;;;13.84;47.59;101759.91;5007513;28;20534;-68
2021/09/18 07:27:37;;;;;;;2.22;0.70;;;;;;;14.00;47.13;101757.50;5003973;28;20608;-67
2021/09/18 07:30:03;;;;;;;2.03;0.63;;;;;;;14.26;47.24;101759.94;5006777;28;20026;-68
2021/09/18 07:32:29;;;;;;;2.13;0.77;;;;;;;14.36;47.23;101766.50;5004000;28;20033;-68
2021/09/18 07:34:54;;;;;;;2.13;0.45;;;;;;;14.62;46.68;101767.22;5006988;28;20029;-68
2021/09/18 07:37:20;;;;;;;1.83;0.40;;;;;;;14.58;45.02;101762.16;5006671;28;20034;-68
2021/09/18 07:39:46;;;;;;;1.10;0.73;;;;;;;14.69;46.21;101767.81;5002663;28;20088;-68
2021/09/18 07:42:12;;;;;;;0.85;0.32;;;;;;;14.64;44.55;101770.63;5005357;28;20034;-68
2021/09/18 07:44:37;;;;;;;1.70;0.50;;;;;;;14.76;46.09;101775.34;5004322;28;20072;-68
2021/09/18 07:47:03;;;;;;;5.97;0.68;;;;;;;14.98;44.53;101774.41;5004553;28;20502;-70
2021/09/18 07:49:28;;;;;;;2.20;0.68;;;;;;;14.99;45.17;101776.13;5018718;28;20223;-68
2021/09/18 07:51:57;;;;;;;1.35;0.50;;;;;;;15.25;45.29;101782.03;5005048;28;20525;-68
2021/09/18 07:54:22;;;;;;;1.70;0.50;;;;;;;15.58;44.38;101777.84;5006193;28;20117;-69
2021/09/18 07:56:48;;;;;;;2.55;0.57;;;;;;;15.92;44.00;101783.28;5005243;28;20471;-70
2021/09/18 07:59:14;;;;;;;1.00;0.52;;;;;;;16.33;42.73;101783.94;5002791;28;20482;-69
2021/09/18 08:01:39;;;;;;;2.55;1.05;;;;;;;16.44;41.75;101786.00;5006484;28;20087;-68
2021/09/18 08:04:05;;;;;;;1.60;0.90;;;;;;;16.28;43.22;101790.34;5002795;28;20034;-68
2021/09/18 08:06:33;;;;;;;1.50;0.50;;;;;;;16.69;42.31;101787.41;5006693;28;20040;-68
2021/09/18 08:08:58;;;;;;;2.05;1.13;;;;;;;17.03;40.98;101789.19;5002983;28;20045;-67
2021/09/18 08:11:25;;;;;;;1.02;0.40;;;;;;;17.24;40.29;101798.56;5005945;28;20034;-68
2021/09/18 08:13:52;;;;;;;2.70;1.33;;;;;;;17.16;42.11;101800.81;5017863;28;20037;-68
2021/09/18 08:16:19;;;;;;;2.15;1.35;;;;;;;17.68;40.58;101791.00;5003119;28;20200;-69
2021/09/18 08:18:45;;;;;;;3.83;0.82;;;;;;;17.75;41.55;101792.34;5003622;28;20282;-69
2021/09/18 08:21:12;;;;;;;2.47;0.43;;;;;;;17.83;41.12;101795.44;5002720;28;20048;-69
2021/09/18 08:23:38;;;;;;;1.73;0.30;;;;;;;17.74;40.11;101794.16;5003308;28;20044;-69
2021/09/18 08:26:04;;;;;;;0.55;0.20;;;;;;;17.65;41.48;101803.44;5003906;28;20038;-69
2021/09/18 08:28:30;;;;;;;0.88;0.32;;;;;;;17.67;40.67;101799.84;5017290;28;21591;-69
2021/09/18 08:30:55;;;;;;;1.38;0.40;;;;;;;17.43;41.08;101802.88;5004537;28;20179;-69
2021/09/18 08:33:21;;;;;;;0.90;0.40;;;;;;;17.53;41.36;101806.75;4997862;28;20037;-69
2021/09/18 08:35:46;;;;;;;1.30;0.20;;;;;;;17.53;41.71;101804.09;5005639;28;20033;-69
2021/09/18 08:38:12;;;;;;;1.02;0.20;;;;;;;17.49;41.92;101799.06;5002841;28;20180;-68
2021/09/18 08:40:39;;;;;;;1.50;0.30;;;;;;;17.49;42.46;101807.84;5004945;28;20088;-69
2021/09/18 08:43:07;;;;;;;2.00;1.08;;;;;;;17.67;41.50;101799.84;4995724;28;20525;-70
2021/09/18 08:45:33;;;;;;;1.63;0.20;;;;;;;17.45;42.27;101801.88;5003154;28;20042;-69
2021/09/18 08:48:05;;;;;;;0.90;0.50;;;;;;;17.44;42.20;101800.13;4996997;28;20041;-71
2021/09/18 08:50:32;;;;;;;3.05;0.20;;;;;;;17.50;41.68;101798.16;4993118;28;20057;-70
2021/09/18 08:52:57;;;;;;;0.95;0.20;;;;;;;17.49;41.63;101804.34;5003660;28;20045;-69
2021/09/18 08:55:23;;;;;;;0.63;0.17;;;;;;;17.51;41.55;101807.78;4996601;28;20044;-68
2021/09/18 08:57:49;;;;;;;0.98;0.68;;;;;;;17.44;41.77;101812.50;5003983;28;20041;-68
2021/09/18 09:00:33;;;;;;;0.73;0.20;;;;;;;17.46;42.03;101815.91;4996278;28;20045;-69
2021/09/18 09:03:04;;;;;;;0.75;0.20;;;;;;;17.56;41.58;101809.25;5003394;28;20109;-69
2021/09/18 09:05:35;;;;;;;1.15;0.15;;;;;;;17.50;42.24;101812.22;5002034;28;20092;-69
2021/09/18 09:08:15;;;;;;;0.40;0.20;;;;;;;17.41;41.72;101812.69;5002780;28;20030;-69
2021/09/18 09:10:43;;;;;;;2.67;0.40;;;;;;;17.41;42.68;101820.63;5002929;28;20037;-69
2021/09/18 09:13:14;;;;;;;0.93;0.20;;;;;;;17.40;42.78;101818.88;5003219;28;20050;-70
2021/09/18 09:15:43;;;;;;;0.50;0.10;;;;;;;17.34;43.15;101829.81;5003729;28;20022;-69
2021/09/18 09:18:27;;;;;;;5.15;0.20;;;;;;;17.39;42.61;101819.84;5002595;28;20069;-69
2021/09/18 09:21:09;;;;;;;0.77;0.20;;;;;;;17.35;43.27;101828.88;5002689;28;20050;-69
2021/09/18 09:23:35;;;;;;;1.58;0.20;;;;;;;17.49;42.11;101826.34;5002788;28;20130;-70
2021/09/18 09:26:02;;;;;;;0.82;0.10;;;;;;;17.67;42.13;101819.22;5003425;28;20162;-70
2021/09/18 09:28:33;;;;;;;0.80;0.10;;;;;;;17.74;42.52;101825.00;5002226;28;20042;-69
2021/09/18 09:31:27;;;;;;;0.82;0.10;;;;;;;17.71;42.35;101820.75;5017906;28;20083;-71
2021/09/18 09:33:55;;;;;;;1.55;0.50;;;;;;;17.93;41.63;101833.63;5001716;28;20552;-69
2021/09/18 09:36:21;;;;;;;0.43;0.10;;;;;;;18.27;40.55;101824.66;5002204;28;20041;-69
2021/09/18 09:38:59;;;;;;;0.40;0.20;;;;;;;18.41;40.74;101823.00;5000570;28;20061;-69
2021/09/18 09:41:41;;;;;;;1.50;0.43;;;;;;;18.43;40.08;101824.63;5000019;28;20025;-69
2021/09/18 09:44:24;;;;;;;5.82;0.40;;;;;;;18.81;40.08;101832.09;4999301;28;20393;-69
2021/09/18 09:47:09;;;;;;;0.75;0.15;;;;;;;18.98;39.53;101832.91;4993951;28;20612;-69
2021/09/18 09:49:47;;;;;;;0.30;0.10;;;;;;;18.83;39.82;101835.50;4999899;28;20066;-68
2021/09/18 09:52:16;;;;;;;0.82;0.10;;;;;;;18.98;40.18;101828.44;4998302;28;20043;-69
2021/09/18 09:54:41;;;;;;;1.25;0.38;;;;;;;19.25;40.21;101831.19;5002103;28;20049;-69
2021/09/18 09:57:11;;;;;;;2.15;0.13;;;;;;;19.24;39.50;101834.81;4999936;28;20034;-70
2021/09/18 09:59:36;;;;;;;0.55;0.20;;;;;;;19.21;40.88;101829.69;4998534;28;20045;-69
2021/09/18 10:02:04;;;;;;;0.63;0.30;;;;;;;18.93;41.19;101834.97;5000177;28;20053;-69
2021/09/18 10:04:30;;;;;;;0.75;0.38;;;;;;;18.80;41.43;101829.53;5016468;28;20060;-69
2021/09/18 10:06:56;;;;;;;0.90;0.28;;;;;;;18.78;41.60;101832.25;5001494;28;20025;-69
2021/09/18 10:09:23;;;;;;;0.60;0.30;;;;;;;18.94;40.73;101836.66;4998723;28;20498;-69
2021/09/18 10:11:48;;;;;;;2.28;0.30;;;;;;;19.17;40.57;101838.78;5001998;28;20518;-69
2021/09/18 10:14:20;;;;;;;0.98;0.55;;;;;;;19.55;39.80;101832.00;5001507;28;20041;-70
2021/09/18 10:16:48;;;;;;;1.60;0.57;;;;;;;19.41;40.62;101831.13;4999407;28;20525;-69
2021/09/18 10:19:15;;;;;;;0.77;0.32;;;;;;;19.37;40.99;101828.72;4999530;28;20042;-69
2021/09/18 10:24:26;;;;;;;0.98;0.40;;;;;;;18.85;41.56;101838.03;5000219;28;20450;-68
2021/09/18 10:27:15;;;;;;;0.82;0.43;;;;;;;19.03;41.97;101838.75;5001112;28;20068;-69
2021/09/18 10:29:40;;;;;;;0.95;0.17;;;;;;;19.22;40.97;101847.28;4993393;28;20160;-69
2021/09/18 10:32:06;;;;;;;0.70;0.20;;;;;;;18.97;41.73;101840.00;5002317;28;20073;-70
2021/09/18 10:34:31;;;;;;;0.93;0.20;;;;;;;19.37;40.85;101841.97;5005652;28;20034;-69
2021/09/18 10:36:57;;;;;;;0.47;0.13;;;;;;;19.48;40.45;101836.88;5008850;28;20069;-69
2021/09/18 10:39:24;;;;;;;2.70;0.20;;;;;;;19.50;39.17;101832.31;5005625;28;20112;-70
2021/09/18 10:41:53;;;;;;;0.40;0.15;;;;;;;19.26;40.48;101842.66;5005983;28;20054;-69
2021/09/18 10:44:21;;;;;;;0.47;0.10;;;;;;;19.44;40.07;101836.22;5004440;28;20042;-69
2021/09/18 10:46:55;;;;;;;0.60;0.10;;;;;;;19.17;40.51;101838.78;4998822;28;20438;-69
2021/09/18 10:49:33;;;;;;;0.20;0.10;;;;;;;19.24;40.49;101833.97;5006837;28;20034;-69
2021/09/18 10:52:17;;;;;;;1.65;0.20;;;;;;;19.29;40.26;101838.00;5019907;28;20043;-69
2021/09/18 10:55:05;;;;;;;1.40;0.10;;;;;;;19.47;39.43;101835.16;5005612;28;20442;-69
2021/09/18 10:57:42;;;;;;;0.10;0.10;;;;;;;19.33;40.49;101838.69;4995069;28;20041;-70
2021/09/18 11:00:10;;;;;;;0.52;0.20;;;;;;;19.78;39.33;101838.56;5020434;28;20041;-70
2021/09/18 11:02:35;;;;;;;0.93;0.35;;;;;;;19.77;39.54;101837.72;5005156;28;20029;-70
2021/09/18 11:05:03;;;;;;;0.60;0.17;;;;;;;19.57;39.92;101831.03;5005664;28;20046;-70
2021/09/18 11:07:41;;;;;;;0.63;0.10;;;;;;;19.49;39.17;101835.91;5004723;28;20049;-70
2021/09/18 11:10:16;;;;;;;0.82;0.20;;;;;;;19.65;39.17;101833.19;5004886;28;20482;-70
2021/09/18 11:13:07;;;;;;;1.95;0.95;;;;;;;19.56;39.06;101829.31;5004428;28;20048;-70
2021/09/18 11:15:56;;;;;;;0.80;0.20;;;;;;;20.05;38.02;101834.09;5019324;28;20045;-69
2021/09/18 11:18:28;;;;;;;0.73;0.20;;;;;;;19.71;38.72;101844.25;4998916;28;20125;-69
2021/09/18 11:21:18;;;;;;;4.07;0.20;;;;;;;20.00;38.61;101838.03;5004509;28;20286;-71
2021/09/18 11:23:47;;;;;;;1.48;0.45;;;;;;;20.40;38.41;101840.75;5005254;28;20034;-70
2021/09/18 11:26:40;;;;;;;0.82;0.30;;;;;;;20.39;38.84;101845.19;5005390;28;20047;-70
2021/09/18 11:29:33;;;;;;;1.85;0.40;;;;;;;20.67;37.23;101844.19;5003597;28;20082;-70
2021/09/18 11:32:21;;;;;;;4.20;0.40;;;;;;;20.71;36.60;101843.03;5005090;28;20420;-70